logo
Search for airport 
image banner adimage banner adimage banner ad
image banner ad

OPSU - Sui Airport

Located in Sui, Pakistan

ICAO - OPSU, IATA - SUL

Data provided by Airmate  

General information

Coordinates: N28°38'42" E69°10'37"
Elevation is 763 feet MSL.
Magnetic variation is 2° East
View others Airports in Balochistan

Operational data

Special qualification required
Current time UTC:
Current local time:
Weather at : - ( 0 km )
METAR: CYNM 130647Z AUTO 33018G24KT 1 1/2SM -SN -UP BKN006 OVC010 01/00 A2913 RMK PCPN 0.8MM PAST HR SLP880
View NOTAMs / SUP AIP / TFR affecting this airport [VIEW]
Communications frequencies: [VIEW]

Runways:

Airport contact information

Address: Sui Pakistan

Satellite view of OPSU